Home   Weather   Germany   Nuremberg   Past weeks
Flag for Germany

Past Weather in Nuremberg, Bavaria, Germany — Yesterday and Last 2 Weeks

Currently: 61 °F. Sunny. (Weather station: Nuernberg, Germany). See more current weather

Past Weather in Nuremberg — Graph

°F

Nuremberg Temperature Yesterday

Maximum temperature yesterday: 75 °F (at 2:50 pm)
Minimum temperature yesterday: 46 °F (at 4:50 am)
Average temperature yesterday: 60 °F

High & Low Weather Summary for the Past Weeks

 TemperatureHumidityPressure
High81 °F (Sep 14, 2:20 pm)100% (Sep 12, 6:20 am)30.42 "Hg (Sep 12, 6:20 am)
Low39 °F (Sep 22, 2:50 am)41% (Sep 23, 4:50 pm)29.92 "Hg (Sep 15, 4:50 pm)
Average59 °F79%30.09 "Hg
* Reported Sep 11 8:20 am — Sep 26 8:20 am, Nuremberg. Weather by CustomWeather, © 2021

Note: Actual official high and low records may vary slightly from our data, if they occured in-between our weather recording intervals... More about our weather records

Nuremberg Weather History for the Previous 24 Hours

Scroll right to see more
 ConditionsComfort  
Time TempWeatherWind HumidityBarometerVisibility
8:20 am
Sun, Sep 26
59 °FSunny.5 mph88%30.07 "Hg10 mi
7:50 am59 °FSunny.5 mph88%30.04 "Hg10 mi
7:20 am57 °FSunny.2 mph88%30.04 "Hg10 mi
6:50 am59 °FClear.5 mph82%30.04 "Hg10 mi
6:20 am59 °FClear.2 mph82%30.04 "Hg10 mi
5:50 am59 °FClear.7 mph82%30.04 "Hg10 mi
5:20 am59 °FClear.9 mph82%30.04 "Hg10 mi
4:50 am57 °FClear.9 mph88%30.07 "Hg10 mi
4:20 am57 °FPassing clouds.7 mph88%30.07 "HgN/A
3:50 am57 °FPassing clouds.6 mph88%30.07 "HgN/A
3:20 am59 °FClear.6 mph82%30.07 "Hg10 mi
2:50 am57 °FClear.6 mph88%30.07 "Hg10 mi
2:20 am57 °FClear.6 mph88%30.07 "Hg10 mi
1:50 am57 °FClear.6 mph88%30.07 "Hg10 mi
12:50 am57 °FClear.5 mph88%30.07 "Hg10 mi
12:20 am55 °FPassing clouds.3 mph94%30.07 "HgN/A
11:50 pm
Sat, Sep 25
57 °FClear.3 mph88%30.04 "Hg10 mi
11:20 pm59 °FClear.5 mph82%30.07 "Hg10 mi
10:50 pm59 °FClear.5 mph82%30.07 "Hg10 mi
10:20 pm59 °FPassing clouds.5 mph82%30.07 "HgN/A
9:50 pm59 °FClear.8 mph82%30.04 "Hg10 mi
9:20 pm61 °FClear.7 mph77%30.04 "Hg10 mi
8:50 pm59 °FClear.5 mph82%30.04 "Hg10 mi
8:20 pm61 °FClear.3 mph83%30.04 "Hg10 mi
7:50 pm63 °FClear.3 mph77%30.04 "Hg10 mi
7:20 pm64 °FClear.2 mph73%30.04 "Hg10 mi
6:50 pm66 °FSunny.3 mph73%30.04 "Hg10 mi
6:20 pm70 °FSunny.5 mph60%30.04 "Hg10 mi
5:50 pm73 °FSunny.5 mph53%30.04 "Hg10 mi
5:20 pm75 °FPassing clouds.5 mph47%30.04 "HgN/A
4:50 pm75 °FPassing clouds.6 mph50%30.04 "HgN/A
4:20 pm75 °FPassing clouds.6 mph50%30.04 "HgN/A
3:50 pm75 °FSunny.6 mph50%30.04 "Hg10 mi
3:20 pm75 °FSunny.3 mph47%30.04 "Hg10 mi
2:50 pm75 °FSunny.3 mph47%30.04 "Hg10 mi
2:20 pm73 °FPassing clouds.5 mph50%30.07 "HgN/A
1:50 pm73 °FSunny.2 mph50%30.07 "Hg10 mi
1:20 pm72 °FSunny.3 mph53%30.07 "Hg10 mi
12:50 pm72 °FSunny.3 mph53%30.09 "Hg10 mi
12:20 pm70 °FSunny.3 mph57%30.09 "Hg10 mi
11:50 am68 °FSunny.2 mph60%30.09 "Hg10 mi
11:20 am66 °FSunny.3 mph64%30.09 "Hg10 mi
10:20 am61 °FPassing clouds.5 mph72%30.09 "HgN/A
9:50 am57 °FSunny.6 mph82%30.09 "Hg10 mi
9:20 am55 °FSunny.6 mph88%30.09 "Hg10 mi
Weather by CustomWeather, © 2021

See weather overview